Charlevoix, MI

6:01 PM EST on February 13, 2016 (GMT -0500)
1.5 W Ironton | | Change Station
CLOSE
Current Station
Personal Weather Station
Location: Charlevoix, MI
Elevation: 750 ft
Nearby Weather Stations
Active Advisory: Wind Chill Advisory

Elev 750 ft 45.26 °N, 85.22 °W | Updated 15 seconds ago

Light Snow
Light Snow
8.6 °F
Feels Like 9 °F
N
1.0
Wind Variable Wind from South
Gusts 1.0 mph

Today
High -- | Low -- °F
--% Chance of Precip.
Yesterday
High -- | Low -- °F
Precip. -- in
Pressure 30.45 in
Visibility 2.0 miles
Clouds Scattered Clouds 900 ft
Mostly Cloudy 1700 ft
Overcast 3100 ft
Windchill 9 °F
Dew Point 4 °F
Humidity 82%
Rainfall 0.00 in
Snow Depth Not available.
7:46 AM 6:04 PM
Waxing Crescent, 35% visible
METAR KCVX 132255Z AUTO 00000KT 2SM -SN SCT009 BKN017 OVC031 M13/M15 A3045 RMK AO2 T11261153
Pressure 30.45 in
Visibility 2.0 miles
Clouds Scattered Clouds 900 ft
Mostly Cloudy 1700 ft
Overcast 3100 ft
Windchill 9 °F
Dew Point 4 °F
Humidity 82%
Rainfall 0.00 in
Snow Depth Not available.
7:46 AM 6:04 PM
Waxing Crescent, 35% visible
METAR KCVX 132255Z AUTO 00000KT 2SM -SN SCT009 BKN017 OVC031 M13/M15 A3045 RMK AO2 T11261153

10-Day Weather Forecast

Almanac

Astronomy

Feb. 13, 2016 Rise Set
Actual Time
Civil Twilight
Nautical Twilight
Astronomical Twilight
Moon
Length of Visible Light
Length of Day
Tomorrow will be .
, % of the Moon is Illuminated

Today's Extremes

State Highs State Lows

Community

WunderPhotos

Upload Photos

1,892,692 photos uploaded!

WunderBlog® & News

Nearby

Air Quality

  Air Quality AQ Index Pollutant
Not available.

Snow Depth

Station Depth Elevation

Earthquake Activity

City Distance Mag. Time & Date
Minimum magnitude displayed is 2.5.

Coastal Water Temperatures

Place Temperature

Stations

Nearby Weather Stations

Station Location Temp. Windchill Dew Point Humidity Wind Precip. Elev Updated Type
                   

Watches & Warnings

Wind Chill Advisory
Issued: 3:17 PM EST Feb. 13, 2016 – National Weather Service

... Wind Chill Advisory in effect from 7 PM this evening to 10 am
EST Sunday...

The National Weather Service in Gaylord has issued a Wind Chill
Advisory... which is in effect from 7 PM this evening to 10 am EST
Sunday.

* Wind chill values of 20 to 30 below zero will be felt into the
morning.

* It only takes 20 to 30 minutes of unprotected exposure to these
temperatures to get frostbite.

Precautionary/preparedness actions...

A Wind Chill Advisory means that very cold air and strong winds
will combine to generate low wind chills. This will result in
frost bite and lead to hypothermia if precautions are not taken.
If you must venture outdoors... make sure you wear a hat and
gloves.